createdAt,value
2023-11-07T00:01:29.528Z,1.27
2023-11-07T00:03:57.169Z,1.30
2023-11-07T00:06:24.601Z,1.33
2023-11-07T00:08:52.364Z,1.20
2023-11-07T00:11:19.978Z,1.20
2023-11-07T00:13:49.236Z,1.30
2023-11-07T00:16:16.332Z,1.00
2023-11-07T00:18:43.842Z,1.00
2023-11-07T00:21:10.973Z,1.20
2023-11-07T00:23:38.805Z,1.00
2023-11-07T00:26:06.239Z,0.93
2023-11-07T00:28:33.087Z,1.10
2023-11-07T00:30:59.892Z,1.10
2023-11-07T00:33:27.071Z,1.03
2023-11-07T00:35:54.125Z,1.20
2023-11-07T00:38:20.988Z,1.20
2023-11-07T00:40:48.872Z,1.30
2023-11-07T00:43:15.841Z,1.10
2023-11-07T00:45:42.722Z,0.90
2023-11-07T00:48:09.817Z,0.90
2023-11-07T00:50:37.692Z,1.00
2023-11-07T00:53:07.485Z,0.80
2023-11-07T00:55:34.400Z,1.00
2023-11-07T00:58:01.282Z,0.90
2023-11-07T01:00:29.340Z,0.90
2023-11-07T01:02:56.275Z,0.97
2023-11-07T01:05:23.294Z,0.83
2023-11-07T01:07:50.155Z,1.20
2023-11-07T01:10:17.023Z,0.90
2023-11-07T01:12:43.852Z,1.10
2023-11-07T01:15:10.900Z,1.10
2023-11-07T01:17:38.399Z,1.30
2023-11-07T01:20:07.647Z,0.90
2023-11-07T01:22:34.898Z,1.00
2023-11-07T01:25:01.780Z,0.90
2023-11-07T01:27:28.627Z,1.00
2023-11-07T01:29:55.551Z,1.00
2023-11-07T01:32:22.477Z,1.10
2023-11-07T01:34:49.386Z,1.20
2023-11-07T01:37:16.419Z,1.27
2023-11-07T01:39:43.228Z,1.20
2023-11-07T01:42:10.187Z,1.10
2023-11-07T01:44:40.072Z,1.00
2023-11-07T01:47:06.937Z,1.00
2023-11-07T01:49:34.515Z,1.10
2023-11-07T01:52:01.358Z,1.17
2023-11-07T01:54:28.680Z,1.20
2023-11-07T01:56:55.739Z,1.20
2023-11-07T01:59:23.890Z,1.00
2023-11-07T02:01:53.481Z,1.10
2023-11-07T02:04:22.567Z,1.00
2023-11-07T02:06:49.622Z,1.10
2023-11-07T02:09:16.489Z,1.00
2023-11-07T02:11:44.963Z,1.10
2023-11-07T02:14:28.830Z,1.00
2023-11-07T02:16:55.861Z,1.60
2023-11-07T02:19:22.814Z,1.40
2023-11-07T02:21:53.218Z,1.07
2023-11-07T02:24:20.201Z,1.07
2023-11-07T02:26:47.104Z,1.00
2023-11-07T02:29:14.272Z,1.20
2023-11-07T02:31:41.135Z,1.20
2023-11-07T02:34:08.344Z,1.10
2023-11-07T02:36:38.641Z,0.90
2023-11-07T02:39:08.563Z,0.93
2023-11-07T02:41:35.850Z,1.00
2023-11-07T02:44:03.693Z,1.03
2023-11-07T02:46:30.663Z,0.97
2023-11-07T02:48:57.646Z,1.20
2023-11-07T02:51:25.066Z,1.13
2023-11-07T02:53:51.953Z,1.17
2023-11-07T02:56:19.040Z,1.30
2023-11-07T02:58:46.006Z,1.10
2023-11-07T03:01:18.715Z,1.20
2023-11-07T03:03:46.112Z,1.10
2023-11-07T03:06:13.488Z,1.10
2023-11-07T03:08:40.872Z,0.90
2023-11-07T03:11:07.715Z,1.03
2023-11-07T03:13:37.733Z,0.90
2023-11-07T03:16:06.271Z,1.10
2023-11-07T03:18:33.700Z,1.00
2023-11-07T03:21:00.828Z,0.97
2023-11-07T03:23:27.704Z,1.10
2023-11-07T03:25:54.556Z,1.00
2023-11-07T03:28:21.834Z,0.97
2023-11-07T03:30:50.015Z,0.93
2023-11-07T03:33:21.261Z,1.00
2023-11-07T03:35:48.348Z,1.07
2023-11-07T03:38:15.403Z,1.37
2023-11-07T03:40:42.371Z,1.17
2023-11-07T03:43:09.810Z,1.10
2023-11-07T03:45:36.688Z,1.30
2023-11-07T03:48:04.313Z,1.30
2023-11-07T03:50:31.629Z,1.10
2023-11-07T03:52:58.660Z,1.10
2023-11-07T03:55:25.546Z,1.10
2023-11-07T03:57:52.371Z,1.23
2023-11-07T04:00:20.853Z,1.20
2023-11-07T04:02:48.174Z,1.30
2023-11-07T04:05:15.269Z,1.00
2023-11-07T04:07:42.208Z,1.10
2023-11-07T04:10:09.390Z,1.10
2023-11-07T04:12:36.725Z,1.17
2023-11-07T04:15:06.508Z,1.27
2023-11-07T04:17:35.025Z,1.10
2023-11-07T04:20:03.990Z,1.00
2023-11-07T04:22:30.897Z,1.20
2023-11-07T04:24:58.593Z,1.00
2023-11-07T04:27:25.496Z,1.23
2023-11-07T04:29:52.523Z,1.23
2023-11-07T04:32:20.089Z,1.50
2023-11-07T04:34:48.738Z,1.30
2023-11-07T04:37:15.985Z,1.60
2023-11-07T04:39:43.135Z,1.20
2023-11-07T04:42:10.293Z,1.27
2023-11-07T04:44:37.770Z,1.40
2023-11-07T04:47:06.603Z,1.10
2023-11-07T04:49:35.043Z,1.00
2023-11-07T04:52:03.457Z,1.20
2023-11-07T04:54:30.657Z,1.20
2023-11-07T04:56:58.818Z,1.03
2023-11-07T04:59:25.833Z,1.03
2023-11-07T05:01:54.291Z,1.20
2023-11-07T05:04:21.763Z,1.30
2023-11-07T05:06:48.923Z,1.10
2023-11-07T05:09:16.066Z,1.33
2023-11-07T05:11:43.287Z,1.37
2023-11-07T05:14:10.972Z,1.50
2023-11-07T05:16:38.860Z,1.30
2023-11-07T05:19:09.153Z,1.27
2023-11-07T05:21:37.130Z,1.30
2023-11-07T05:24:05.343Z,1.20
2023-11-07T05:26:32.583Z,1.50
2023-11-07T05:29:00.779Z,2.33
2023-11-07T05:31:27.678Z,2.17
2023-11-07T05:33:54.800Z,2.30
2023-11-07T05:36:21.866Z,1.70
2023-11-07T05:38:48.971Z,1.77
2023-11-07T05:41:15.920Z,1.90
2023-11-07T05:43:44.071Z,1.70
2023-11-07T05:46:10.971Z,1.67
2023-11-07T05:48:38.625Z,1.50
2023-11-07T05:51:06.276Z,1.50
2023-11-07T05:53:33.146Z,1.40
2023-11-07T05:56:00.581Z,1.97
2023-11-07T05:58:27.814Z,1.80
2023-11-07T06:00:56.631Z,1.60
2023-11-07T06:03:23.652Z,1.60
2023-11-07T06:05:50.601Z,1.53
2023-11-07T06:08:17.535Z,1.80
2023-11-07T06:10:44.854Z,1.47
2023-11-07T06:13:11.718Z,1.73
2023-11-07T06:15:39.210Z,1.90
2023-11-07T06:18:06.326Z,1.90
2023-11-07T06:20:33.563Z,1.77
2023-11-07T06:23:00.451Z,1.90
2023-11-07T06:25:27.340Z,2.00
2023-11-07T06:27:54.438Z,2.00
2023-11-07T06:30:22.858Z,1.97
2023-11-07T06:32:51.013Z,2.20
2023-11-07T06:35:17.976Z,2.20
2023-11-07T06:37:44.826Z,2.10
2023-11-07T06:40:17.202Z,2.27
2023-11-07T06:42:47.206Z,2.10
2023-11-07T06:45:15.810Z,2.20
2023-11-07T06:47:44.491Z,2.40
2023-11-07T06:50:16.757Z,2.20
2023-11-07T06:52:52.041Z,2.50
2023-11-07T06:55:22.857Z,2.30
2023-11-07T06:57:51.130Z,2.40
2023-11-07T07:00:22.307Z,2.33
2023-11-07T07:02:49.926Z,1.90
2023-11-07T07:05:17.587Z,2.20
2023-11-07T07:07:44.891Z,2.20
2023-11-07T07:10:12.211Z,2.30
2023-11-07T07:12:39.787Z,2.10
2023-11-07T07:15:11.584Z,2.47
2023-11-07T07:17:38.774Z,2.70
2023-11-07T07:20:12.806Z,2.40
2023-11-07T07:22:43.728Z,2.50
2023-11-07T07:25:16.595Z,2.70
2023-11-07T07:27:50.609Z,2.57
2023-11-07T07:30:23.265Z,2.33
2023-11-07T07:32:51.906Z,2.20
2023-11-07T07:35:22.137Z,2.00
2023-11-07T07:37:53.546Z,2.50
2023-11-07T07:40:30.496Z,2.30
2023-11-07T07:43:00.152Z,2.20
2023-11-07T07:45:31.719Z,2.30
2023-11-07T07:47:59.773Z,2.20
2023-11-07T07:50:26.752Z,2.47
2023-11-07T07:52:55.478Z,2.00
2023-11-07T07:55:31.871Z,2.20
2023-11-07T07:58:02.259Z,1.83
2023-11-07T08:00:32.544Z,1.80
2023-11-07T08:03:06.544Z,1.80
2023-11-07T08:05:34.818Z,1.73
2023-11-07T08:08:01.694Z,1.73
2023-11-07T08:10:28.569Z,2.03
2023-11-07T08:12:57.524Z,1.83
2023-11-07T08:15:27.923Z,2.10
2023-11-07T08:17:55.676Z,2.00
2023-11-07T08:20:24.133Z,1.80
2023-11-07T08:22:53.183Z,1.90
2023-11-07T08:25:22.331Z,2.00
2023-11-07T08:27:52.727Z,1.70
2023-11-07T08:30:26.404Z,1.93
2023-11-07T08:32:54.334Z,1.73
2023-11-07T08:35:21.602Z,1.83
2023-11-07T08:37:51.639Z,2.07
2023-11-07T08:40:22.390Z,2.13
2023-11-07T08:42:51.807Z,2.13
2023-11-07T08:45:20.704Z,2.23
2023-11-07T08:47:50.624Z,2.10
2023-11-07T08:50:19.521Z,1.80
2023-11-07T08:52:48.526Z,2.10
2023-11-07T08:55:15.451Z,1.80
2023-11-07T08:57:42.293Z,1.90
2023-11-07T09:00:11.872Z,2.00
2023-11-07T09:02:39.592Z,1.97
2023-11-07T09:05:07.951Z,1.83
2023-11-07T09:07:39.282Z,1.70
2023-11-07T09:10:07.210Z,1.80
2023-11-07T09:12:34.269Z,1.70
2023-11-07T09:15:01.290Z,1.90
2023-11-07T09:17:28.572Z,1.47
2023-11-07T09:19:55.815Z,1.87
2023-11-07T09:22:23.965Z,1.87
2023-11-07T09:24:50.846Z,1.50
2023-11-07T09:27:17.847Z,1.50
2023-11-07T09:29:45.417Z,1.50
2023-11-07T09:32:13.298Z,1.40
2023-11-07T09:34:43.468Z,1.20
2023-11-07T09:37:10.359Z,1.40
2023-11-07T09:39:37.294Z,1.33
2023-11-07T09:42:09.471Z,1.43
2023-11-07T09:44:39.480Z,1.30
2023-11-07T09:47:07.415Z,1.30
2023-11-07T09:49:35.003Z,1.30
2023-11-07T09:52:06.894Z,1.20
2023-11-07T09:54:39.616Z,1.20
2023-11-07T09:57:10.155Z,1.13
2023-11-07T09:59:54.287Z,1.37
2023-11-07T10:02:22.605Z,1.40
2023-11-07T10:04:51.739Z,1.20
2023-11-07T10:07:18.795Z,1.30
2023-11-07T10:09:47.565Z,1.40
2023-11-07T10:12:17.260Z,1.60
2023-11-07T10:14:44.751Z,1.40
2023-11-07T10:17:22.545Z,1.20
2023-11-07T10:20:06.210Z,1.37
2023-11-07T10:22:47.089Z,1.50
2023-11-07T10:25:32.394Z,1.00
2023-11-07T10:28:07.112Z,1.00
2023-11-07T10:30:47.272Z,0.90
2023-11-07T10:33:33.797Z,1.13
2023-11-07T10:36:03.408Z,1.17
2023-11-07T10:38:31.325Z,1.03
2023-11-07T10:40:59.875Z,1.40
2023-11-07T10:43:39.677Z,1.70
2023-11-07T10:46:11.469Z,1.57
2023-11-07T10:48:41.825Z,1.30
2023-11-07T10:51:15.198Z,1.30
2023-11-07T10:53:43.903Z,1.27
2023-11-07T10:56:22.164Z,1.30
2023-11-07T10:58:55.926Z,1.00
2023-11-07T11:01:23.595Z,1.03
2023-11-07T11:03:52.089Z,1.27
2023-11-07T11:06:24.492Z,0.90
2023-11-07T11:08:57.191Z,1.20
2023-11-07T11:11:28.778Z,1.20
2023-11-07T11:13:56.704Z,1.50
2023-11-07T11:16:26.585Z,1.33
2023-11-07T11:19:07.459Z,1.33
2023-11-07T11:22:17.804Z,1.20
2023-11-07T11:25:15.283Z,1.00
2023-11-07T11:27:49.847Z,1.00
2023-11-07T11:30:17.875Z,1.00
2023-11-07T11:32:45.529Z,0.90
2023-11-07T11:35:22.462Z,1.00
2023-11-07T11:38:13.208Z,1.27
2023-11-07T11:40:51.438Z,1.00
2023-11-07T11:43:23.136Z,0.93
2023-11-07T11:45:51.303Z,1.03
2023-11-07T11:48:20.705Z,1.33
2023-11-07T11:50:48.559Z,1.10
2023-11-07T11:53:34.170Z,1.10
2023-11-07T11:56:01.002Z,1.17
2023-11-07T11:58:32.961Z,1.40
2023-11-07T12:01:01.667Z,1.60
2023-11-07T12:03:38.263Z,1.63
2023-11-07T12:06:07.610Z,2.00
2023-11-07T12:08:36.722Z,2.57
2023-11-07T12:11:03.656Z,1.80
2023-11-07T12:13:33.600Z,1.73
2023-11-07T12:16:18.120Z,1.70
2023-11-07T12:18:48.057Z,1.70
2023-11-07T12:21:26.003Z,1.23
2023-11-07T12:23:55.106Z,1.37
2023-11-07T12:26:22.171Z,1.20
2023-11-07T12:28:52.344Z,1.40
2023-11-07T12:31:25.445Z,1.57
2023-11-07T12:33:53.052Z,1.27
2023-11-07T12:36:20.112Z,1.20
2023-11-07T12:38:47.116Z,1.30
2023-11-07T12:41:14.376Z,1.10
2023-11-07T12:43:45.641Z,1.10
2023-11-07T12:46:16.239Z,1.03
2023-11-07T12:48:44.062Z,1.10
2023-11-07T12:51:11.669Z,1.20
2023-11-07T12:53:48.495Z,0.80
2023-11-07T12:56:22.435Z,0.93
2023-11-07T12:58:49.695Z,0.80
2023-11-07T13:01:17.079Z,0.77
2023-11-07T13:03:44.200Z,0.67
2023-11-07T13:06:13.785Z,0.80
2023-11-07T13:08:48.390Z,0.70
2023-11-07T13:11:16.411Z,0.70
2023-11-07T13:13:52.025Z,0.90
2023-11-07T13:16:20.187Z,1.10
2023-11-07T13:18:49.275Z,0.90
2023-11-07T13:21:17.870Z,0.90
2023-11-07T13:23:45.354Z,0.97
2023-11-07T13:26:12.370Z,0.80
2023-11-07T13:28:42.155Z,0.77
2023-11-07T13:31:09.940Z,0.83
2023-11-07T13:33:37.175Z,0.77
2023-11-07T13:36:07.172Z,0.90
2023-11-07T13:38:34.077Z,0.90
2023-11-07T13:41:01.049Z,1.10
2023-11-07T13:43:27.965Z,1.10
2023-11-07T13:45:55.166Z,1.17
2023-11-07T13:48:23.037Z,1.87
2023-11-07T13:50:50.372Z,1.63
2023-11-07T13:53:17.243Z,1.60
2023-11-07T13:55:47.017Z,1.40
2023-11-07T13:58:14.032Z,1.20
2023-11-07T14:00:40.849Z,1.30
2023-11-07T14:03:08.813Z,1.70
2023-11-07T14:05:35.876Z,1.77
2023-11-07T14:08:03.192Z,1.67
2023-11-07T14:10:32.655Z,1.40
2023-11-07T14:12:59.886Z,1.20
2023-11-07T14:15:32.905Z,1.20
2023-11-07T14:18:13.572Z,1.07
2023-11-07T14:20:51.073Z,1.10
2023-11-07T14:23:18.076Z,1.10
2023-11-07T14:25:46.489Z,1.17
2023-11-07T14:28:14.049Z,1.00
2023-11-07T14:30:45.439Z,1.20
2023-11-07T14:33:17.316Z,1.30
2023-11-07T14:35:45.000Z,1.50
2023-11-07T14:38:11.865Z,2.10
2023-11-07T14:40:38.978Z,4.33
2023-11-07T14:43:14.969Z,4.10
2023-11-07T14:45:44.505Z,3.80
2023-11-07T14:48:11.918Z,3.03
2023-11-07T14:50:40.355Z,2.80
2023-11-07T14:53:08.547Z,2.63
2023-11-07T14:55:36.518Z,2.70
2023-11-07T14:58:07.853Z,2.67
2023-11-07T15:00:41.502Z,2.63
2023-11-07T15:03:11.164Z,2.97
2023-11-07T15:05:40.437Z,3.83
2023-11-07T15:08:07.759Z,4.00
2023-11-07T15:10:36.072Z,3.27
2023-11-07T15:13:05.484Z,2.90
2023-11-07T15:15:34.315Z,2.00
2023-11-07T15:18:11.493Z,2.30
2023-11-07T15:20:41.691Z,2.00
2023-11-07T15:23:09.319Z,1.80
2023-11-07T15:25:37.357Z,1.57
2023-11-07T15:28:04.976Z,1.30
2023-11-07T15:30:33.306Z,1.60
2023-11-07T15:33:02.331Z,1.70
2023-11-07T15:35:35.712Z,1.77
2023-11-07T15:38:03.521Z,1.43
2023-11-07T15:40:30.397Z,1.40
2023-11-07T15:42:57.354Z,1.30
2023-11-07T15:45:24.320Z,1.20
2023-11-07T15:47:51.385Z,1.40
2023-11-07T15:50:18.639Z,1.20
2023-11-07T15:53:00.585Z,1.40
2023-11-07T15:55:35.595Z,1.23
2023-11-07T15:58:02.953Z,1.43
2023-11-07T16:00:29.992Z,1.27
2023-11-07T16:02:57.386Z,1.40
2023-11-07T16:05:30.414Z,1.23
2023-11-07T16:07:57.421Z,1.30
2023-11-07T16:10:25.100Z,1.40
2023-11-07T16:12:52.652Z,1.50
2023-11-07T16:15:20.055Z,1.60
2023-11-07T16:17:48.528Z,1.60
2023-11-07T16:20:18.141Z,1.87
2023-11-07T16:22:45.887Z,1.30
2023-11-07T16:25:13.456Z,1.40
2023-11-07T16:27:40.554Z,1.37
2023-11-07T16:30:09.436Z,1.30
2023-11-07T16:32:36.921Z,1.47
2023-11-07T16:35:06.120Z,1.47
2023-11-07T16:37:35.380Z,1.40
2023-11-07T16:40:13.254Z,1.50
2023-11-07T16:42:41.944Z,1.73
2023-11-07T16:45:12.645Z,1.57
2023-11-07T16:47:42.563Z,1.83
2023-11-07T16:50:10.173Z,2.20
2023-11-07T16:52:40.665Z,2.80
2023-11-07T16:55:09.983Z,5.70
2023-11-07T16:57:37.957Z,4.33
2023-11-07T17:00:11.141Z,3.43
2023-11-07T17:02:39.184Z,2.30
2023-11-07T17:05:07.641Z,1.70
2023-11-07T17:07:34.721Z,1.60
2023-11-07T17:10:01.837Z,1.30
2023-11-07T17:12:29.269Z,1.47
2023-11-07T17:14:56.948Z,1.50
2023-11-07T17:17:23.856Z,1.53
2023-11-07T17:19:52.443Z,2.17
2023-11-07T17:22:19.402Z,2.10
2023-11-07T17:24:46.274Z,3.13
2023-11-07T17:27:14.348Z,2.80
2023-11-07T17:29:41.328Z,2.93
2023-11-07T17:32:11.131Z,2.43
2023-11-07T17:34:39.254Z,2.40
2023-11-07T17:37:06.334Z,2.43
2023-11-07T17:39:33.466Z,2.73
2023-11-07T17:42:00.630Z,2.90
2023-11-07T17:44:27.635Z,3.10
2023-11-07T17:46:54.427Z,3.00
2023-11-07T17:49:21.382Z,2.67
2023-11-07T17:51:48.230Z,2.97
2023-11-07T17:54:17.171Z,9.40
2023-11-07T17:56:44.279Z,22.50
2023-11-07T17:59:12.736Z,39.47
2023-11-07T18:01:40.645Z,37.70
2023-11-07T18:04:08.243Z,35.53
2023-11-07T18:06:35.542Z,43.10
2023-11-07T18:09:02.859Z,35.67
2023-11-07T18:11:35.324Z,28.10
2023-11-07T18:14:04.861Z,23.43
2023-11-07T18:16:32.690Z,19.20
2023-11-07T18:19:00.377Z,7.77
2023-11-07T18:21:28.398Z,7.37
2023-11-07T18:23:55.984Z,8.67
2023-11-07T18:26:23.649Z,8.30
2023-11-07T18:28:51.321Z,5.87
2023-11-07T18:31:18.567Z,4.37
2023-11-07T18:33:50.035Z,3.97
2023-11-07T18:36:18.434Z,3.43
2023-11-07T18:38:45.936Z,3.07
2023-11-07T18:41:13.165Z,2.70
2023-11-07T18:43:40.040Z,2.10
2023-11-07T18:46:07.031Z,2.50
2023-11-07T18:48:35.011Z,2.23
2023-11-07T18:51:02.499Z,2.00
2023-11-07T18:53:37.381Z,1.60
2023-11-07T18:56:14.184Z,1.60
2023-11-07T18:58:41.275Z,1.43
2023-11-07T19:01:09.624Z,1.60
2023-11-07T19:03:37.140Z,1.80
2023-11-07T19:06:04.884Z,1.67
2023-11-07T19:08:32.448Z,1.90
2023-11-07T19:11:00.836Z,1.70
2023-11-07T19:13:27.951Z,2.60
2023-11-07T19:15:55.584Z,2.57
2023-11-07T19:18:23.907Z,2.30
2023-11-07T19:20:51.395Z,1.80
2023-11-07T19:23:20.236Z,1.77
2023-11-07T19:25:48.055Z,1.70
2023-11-07T19:28:15.572Z,1.70
2023-11-07T19:30:42.453Z,1.90
2023-11-07T19:33:10.813Z,1.40
2023-11-07T19:35:37.718Z,1.57
2023-11-07T19:38:04.731Z,1.70
2023-11-07T19:40:33.761Z,1.70
2023-11-07T19:43:00.664Z,1.63
2023-11-07T19:45:27.658Z,1.50
2023-11-07T19:47:54.595Z,1.73
2023-11-07T19:50:21.628Z,1.70
2023-11-07T19:52:54.525Z,1.57
2023-11-07T19:55:30.586Z,1.60
2023-11-07T19:57:57.673Z,1.63
2023-11-07T20:00:25.088Z,1.80
2023-11-07T20:02:52.777Z,1.83
2023-11-07T20:05:21.531Z,2.40
2023-11-07T20:07:55.766Z,2.13
2023-11-07T20:10:24.355Z,1.90
2023-11-07T20:12:51.236Z,1.90
2023-11-07T20:15:18.101Z,2.27
2023-11-07T20:17:45.118Z,1.93
2023-11-07T20:20:12.379Z,2.20
2023-11-07T20:22:39.382Z,2.33
2023-11-07T20:25:09.772Z,2.20
2023-11-07T20:27:37.742Z,2.33
2023-11-07T20:30:06.846Z,2.40
2023-11-07T20:32:34.004Z,2.07
2023-11-07T20:35:00.968Z,2.10
2023-11-07T20:37:28.785Z,2.30
2023-11-07T20:39:57.330Z,2.10
2023-11-07T20:42:26.206Z,2.20
2023-11-07T20:45:00.730Z,2.10
2023-11-07T20:47:35.357Z,2.10
2023-11-07T20:50:05.821Z,1.97
2023-11-07T20:52:33.377Z,1.90
2023-11-07T20:55:00.317Z,2.50
2023-11-07T20:57:27.129Z,2.10
2023-11-07T20:59:54.021Z,2.10
2023-11-07T21:02:21.088Z,2.17
2023-11-07T21:04:49.020Z,2.37
2023-11-07T21:07:16.431Z,2.20
2023-11-07T21:09:44.047Z,2.50
2023-11-07T21:12:10.970Z,2.17
2023-11-07T21:14:39.167Z,2.40
2023-11-07T21:17:06.231Z,2.00
2023-11-07T21:19:34.117Z,2.20
2023-11-07T21:22:01.530Z,2.30
2023-11-07T21:24:28.921Z,2.10
2023-11-07T21:26:55.901Z,2.00
2023-11-07T21:29:22.821Z,2.00
2023-11-07T21:31:53.376Z,1.83
2023-11-07T21:34:22.012Z,1.63
2023-11-07T21:36:49.959Z,1.90
2023-11-07T21:39:21.035Z,1.87
2023-11-07T21:41:50.011Z,1.90
2023-11-07T21:44:17.066Z,1.87
2023-11-07T21:46:43.954Z,1.87
2023-11-07T21:49:11.019Z,1.57
2023-11-07T21:51:38.092Z,1.80
2023-11-07T21:54:06.129Z,1.80
2023-11-07T21:56:33.487Z,1.80
2023-11-07T21:59:00.419Z,1.70
2023-11-07T22:01:27.684Z,1.80
2023-11-07T22:03:55.013Z,1.80
2023-11-07T22:06:22.412Z,3.73
2023-11-07T22:08:49.427Z,4.20
2023-11-07T22:11:16.658Z,3.20
2023-11-07T22:13:43.744Z,2.33
2023-11-07T22:16:13.931Z,2.10
2023-11-07T22:18:40.891Z,2.03
2023-11-07T22:21:07.894Z,1.80
2023-11-07T22:23:34.796Z,1.77
2023-11-07T22:26:01.638Z,1.57
2023-11-07T22:28:29.149Z,1.70
2023-11-07T22:30:56.794Z,1.80
2023-11-07T22:33:24.450Z,1.80
2023-11-07T22:35:53.112Z,1.80
2023-11-07T22:38:20.458Z,1.67
2023-11-07T22:40:50.545Z,1.80
2023-11-07T22:43:17.664Z,1.50
2023-11-07T22:45:44.688Z,1.57
2023-11-07T22:48:11.699Z,1.60
2023-11-07T22:50:38.624Z,1.77
2023-11-07T22:53:06.678Z,1.30
2023-11-07T22:55:33.660Z,1.40
2023-11-07T22:58:00.521Z,1.60
2023-11-07T23:00:53.895Z,1.40
2023-11-07T23:03:21.234Z,1.20
2023-11-07T23:05:49.574Z,1.40
2023-11-07T23:08:17.238Z,1.60
2023-11-07T23:10:45.789Z,1.87
2023-11-07T23:13:12.760Z,1.40
2023-11-07T23:15:40.050Z,1.70
2023-11-07T23:18:07.320Z,1.70
2023-11-07T23:20:41.168Z,1.40
2023-11-07T23:23:08.722Z,1.50
2023-11-07T23:25:35.571Z,1.50
2023-11-07T23:28:02.756Z,1.40
2023-11-07T23:30:29.726Z,1.87
2023-11-07T23:33:00.993Z,1.37
2023-11-07T23:35:28.413Z,1.63
2023-11-07T23:37:57.504Z,1.50
2023-11-07T23:40:26.958Z,1.40
2023-11-07T23:42:53.769Z,1.60
2023-11-07T23:45:20.697Z,1.47
2023-11-07T23:47:48.330Z,1.30
2023-11-07T23:50:15.162Z,1.50
2023-11-07T23:52:41.960Z,1.60
2023-11-07T23:55:09.442Z,1.30
2023-11-07T23:57:36.430Z,1.40
